Time;durP1;ratioP1;P1;durP2;ratioP2;P2;SDS_P1;SDS_P2;PMS_P1;PMS_P2;Temp;Humidity;BMP_temperature;BMP_pressure;BME280_temperature;BME280_humidity;BME280_pressure;Samples;Min_cycle;Max_cycle;Signal;HPM_P1;HPM_P2
2022/10/04 00:01:50;;;;;;;9.90;2.87;;;13.40;99.90;;;;;;5024905;28;20179;-74
2022/10/04 00:04:25;;;;;;;9.27;2.50;;;13.30;99.90;;;;;;5024461;28;20182;-71
2022/10/04 00:07:00;;;;;;;6.00;3.03;;;13.30;99.90;;;;;;5024960;28;20199;-72
2022/10/04 00:09:40;;;;;;;8.43;2.43;;;13.30;99.90;;;;;;5026973;28;20201;-73
2022/10/04 00:12:13;;;;;;;7.93;2.57;;;13.30;99.90;;;;;;5023536;28;20730;-72
2022/10/04 00:14:41;;;;;;;16.17;4.00;;;13.30;99.90;;;;;;5024473;28;20178;-72
2022/10/04 00:17:10;;;;;;;12.07;2.60;;;13.30;99.90;;;;;;5025691;28;20207;-70
2022/10/04 00:19:40;;;;;;;7.10;2.60;;;13.30;99.90;;;;;;5022739;28;20195;-71
2022/10/04 00:22:09;;;;;;;11.00;2.87;;;13.30;99.90;;;;;;5025225;28;20271;-72
2022/10/04 00:24:35;;;;;;;11.17;4.17;;;13.30;99.90;;;;;;5027096;28;20229;-71
2022/10/04 00:27:20;;;;;;;8.03;2.73;;;13.30;99.90;;;;;;5024866;28;20208;-73
2022/10/04 00:30:21;;;;;;;5.43;2.10;;;13.30;99.90;;;;;;5025343;28;20195;-72
2022/10/04 00:33:01;;;;;;;10.20;2.03;;;13.30;99.90;;;;;;5021979;28;20519;-74
2022/10/04 00:35:27;;;;;;;8.70;3.20;;;13.30;99.90;;;;;;5027074;28;20194;-73
2022/10/04 00:38:12;;;;;;;10.60;2.40;;;13.30;99.90;;;;;;5026951;28;20732;-74
2022/10/04 00:40:48;;;;;;;5.50;2.00;;;13.30;99.90;;;;;;5026479;28;20201;-73
2022/10/04 00:43:21;;;;;;;13.60;2.60;;;13.30;99.90;;;;;;5024684;28;20207;-73
2022/10/04 00:46:26;;;;;;;5.97;2.17;;;13.30;99.90;;;;;;5025041;28;20198;-72
2022/10/04 00:48:56;;;;;;;9.30;2.80;;;13.20;99.90;;;;;;5001929;28;20573;-73
2022/10/04 00:51:31;;;;;;;7.07;2.87;;;13.30;99.90;;;;;;5005665;28;20580;-74
2022/10/04 00:54:21;;;;;;;8.50;2.80;;;13.20;99.90;;;;;;5015673;28;20581;-75
2022/10/04 00:56:51;;;;;;;10.57;2.90;;;13.30;99.90;;;;;;5024770;28;20184;-73
2022/10/04 00:59:41;;;;;;;8.80;2.97;;;13.20;99.90;;;;;;5026864;28;20180;-72
2022/10/04 01:02:25;;;;;;;5.17;2.53;;;13.20;99.90;;;;;;5023441;28;20233;-72
2022/10/04 01:05:00;;;;;;;12.40;3.00;;;13.20;99.90;;;;;;5025305;28;20195;-72
2022/10/04 01:07:31;;;;;;;9.33;3.07;;;13.20;99.90;;;;;;5022881;28;20254;-72
2022/10/04 01:10:18;;;;;;;7.87;3.17;;;13.20;99.90;;;;;;5024490;28;20208;-72
2022/10/04 01:12:59;;;;;;;14.33;3.03;;;13.20;99.90;;;;;;5024392;28;20209;-72
2022/10/04 01:15:38;;;;;;;8.17;2.10;;;13.20;99.90;;;;;;5024691;28;20192;-72
2022/10/04 01:18:07;;;;;;;8.87;2.37;;;13.20;99.90;;;;;;5022271;28;20238;-72
2022/10/04 01:20:47;;;;;;;15.70;3.53;;;13.20;99.90;;;;;;5028028;28;20205;-71
2022/10/04 01:23:40;;;;;;;12.77;2.83;;;13.20;99.90;;;;;;5023831;28;20198;-73
2022/10/04 01:26:28;;;;;;;8.37;3.17;;;13.10;99.90;;;;;;5024739;28;20182;-73
2022/10/04 01:29:03;;;;;;;8.50;2.87;;;13.00;99.90;;;;;;5022307;28;20221;-72
2022/10/04 01:31:31;;;;;;;12.53;2.97;;;13.00;99.90;;;;;;5024903;28;20189;-73
2022/10/04 01:33:59;;;;;;;11.47;3.27;;;13.00;99.90;;;;;;5024771;28;20202;-74
2022/10/04 01:36:26;;;;;;;12.40;3.10;;;13.00;99.90;;;;;;5025298;28;20196;-73
2022/10/04 01:38:52;;;;;;;5.33;2.20;;;13.00;99.90;;;;;;5023029;28;20244;-72
2022/10/04 01:41:24;;;;;;;8.70;2.40;;;13.00;99.90;;;;;;5027104;28;20560;-72
2022/10/04 01:43:52;;;;;;;7.30;1.90;;;13.00;99.90;;;;;;5022242;28;20214;-71
2022/10/04 01:46:32;;;;;;;9.70;2.97;;;13.00;99.90;;;;;;5027300;28;20199;-73
2022/10/04 01:49:01;;;;;;;10.10;2.67;;;12.90;99.90;;;;;;5021521;28;20216;-73
2022/10/04 01:51:32;;;;;;;6.43;2.10;;;12.90;99.90;;;;;;5026008;28;20217;-73
2022/10/04 01:54:19;;;;;;;14.17;3.57;;;12.80;99.90;;;;;;5021193;28;20203;-72
2022/10/04 01:57:01;;;;;;;9.43;2.83;;;12.80;99.90;;;;;;5039909;28;20181;-72
2022/10/04 01:59:30;;;;;;;9.03;3.03;;;12.80;99.90;;;;;;5023415;28;20174;-71
2022/10/04 02:02:04;;;;;;;8.13;2.83;;;12.70;99.90;;;;;;5025261;28;20190;-72
2022/10/04 02:04:34;;;;;;;8.77;3.43;;;12.70;99.90;;;;;;5024892;28;20185;-72
2022/10/04 02:07:02;;;;;;;7.60;3.07;;;12.70;99.90;;;;;;5024732;28;20607;-73
2022/10/04 02:09:32;;;;;;;8.50;3.30;;;12.70;99.90;;;;;;5024574;28;20205;-72
2022/10/04 02:11:59;;;;;;;4.83;2.10;;;12.70;99.90;;;;;;5022187;28;20255;-72
2022/10/04 02:14:31;;;;;;;7.57;3.03;;;12.70;99.90;;;;;;5024667;28;20236;-72
2022/10/04 02:16:58;;;;;;;7.47;2.40;;;12.70;99.90;;;;;;5022927;28;20703;-72
2022/10/04 02:19:31;;;;;;;6.47;2.60;;;12.70;99.90;;;;;;5024806;28;20227;-71
2022/10/04 02:21:57;;;;;;;7.73;2.13;;;12.70;99.90;;;;;;5020405;28;20179;-71
2022/10/04 02:24:23;;;;;;;11.23;3.60;;;12.70;99.90;;;;;;5024543;28;20537;-71
2022/10/04 02:26:52;;;;;;;8.37;2.30;;;12.70;99.90;;;;;;5024405;28;20256;-72
2022/10/04 02:29:19;;;;;;;6.13;2.40;;;12.70;99.90;;;;;;5022451;28;20300;-72
2022/10/04 02:34:30;;;;;;;5.23;1.90;;;12.70;99.90;;;;;;5024483;28;20271;-72
2022/10/04 02:36:56;;;;;;;6.53;2.47;;;12.80;99.90;;;;;;5025787;28;20247;-73
2022/10/04 02:39:27;;;;;;;8.43;2.93;;;12.80;99.90;;;;;;5021520;28;20307;-74
2022/10/04 02:41:59;;;;;;;7.10;2.70;;;12.70;99.90;;;;;;5023501;28;20225;-71
2022/10/04 02:44:49;;;;;;;9.00;2.80;;;12.70;99.90;;;;;;5022249;28;20240;-73
2022/10/04 02:47:17;;;;;;;7.40;2.40;;;12.60;99.90;;;;;;5022442;28;20611;-73
2022/10/04 02:49:56;;;;;;;7.50;2.50;;;12.60;99.90;;;;;;5024078;28;20635;-73
2022/10/04 02:52:30;;;;;;;15.17;2.70;;;12.50;99.90;;;;;;5021999;28;20609;-71
2022/10/04 02:55:21;;;;;;;13.13;2.80;;;12.50;99.90;;;;;;5023791;28;20190;-73
2022/10/04 02:57:48;;;;;;;9.63;3.03;;;12.40;99.90;;;;;;5020849;28;20196;-72
2022/10/04 03:00:20;;;;;;;11.47;3.10;;;12.40;99.90;;;;;;5024118;28;20196;-73
2022/10/04 03:03:07;;;;;;;6.07;2.43;;;12.30;99.90;;;;;;5022963;28;20788;-72
2022/10/04 03:05:33;;;;;;;8.00;3.30;;;12.30;99.90;;;;;;5025837;28;20190;-72
2022/10/04 03:08:00;;;;;;;10.30;3.00;;;12.20;99.90;;;;;;5023338;28;20208;-72
2022/10/04 03:10:26;;;;;;;12.37;3.20;;;12.20;99.90;;;;;;5023437;28;20209;-72
2022/10/04 03:12:52;;;;;;;12.37;3.53;;;12.20;99.90;;;;;;5024360;28;20212;-72
2022/10/04 03:15:18;;;;;;;11.93;3.40;;;12.10;99.90;;;;;;5024153;28;20184;-73
2022/10/04 03:17:45;;;;;;;8.57;3.07;;;12.10;99.90;;;;;;5023285;28;20349;-72
2022/10/04 03:20:15;;;;;;;12.20;2.70;;;12.10;99.90;;;;;;5024055;28;20204;-72
2022/10/04 03:22:44;;;;;;;9.43;3.30;;;12.00;99.90;;;;;;5023796;28;20614;-71
2022/10/04 03:25:20;;;;;;;9.90;3.40;;;12.00;99.90;;;;;;5023852;28;20271;-72
2022/10/04 03:27:47;;;;;;;9.73;2.77;;;12.00;99.90;;;;;;5021216;28;20580;-72
2022/10/04 03:30:14;;;;;;;18.23;4.10;;;11.90;99.90;;;;;;5023553;28;20917;-71
2022/10/04 03:32:40;;;;;;;9.63;2.90;;;11.90;99.90;;;;;;5023332;28;20195;-71
2022/10/04 03:35:18;;;;;;;10.57;3.73;;;11.90;99.90;;;;;;5024058;28;20187;-72
2022/10/04 03:37:45;;;;;;;12.80;3.23;;;11.80;99.90;;;;;;5024051;28;20250;-71
2022/10/04 03:40:11;;;;;;;8.97;2.70;;;11.80;99.90;;;;;;5023892;28;20714;-71
2022/10/04 03:42:37;;;;;;;8.17;2.90;;;11.80;99.90;;;;;;5023314;28;20207;-71
2022/10/04 03:45:06;;;;;;;12.87;3.40;;;11.80;99.90;;;;;;5023568;28;20215;-71
2022/10/04 03:47:36;;;;;;;12.57;4.50;;;11.70;99.90;;;;;;5021952;28;20684;-71
2022/10/04 03:50:33;;;;;;;8.33;3.77;;;11.70;99.90;;;;;;5023355;28;20211;-71
2022/10/04 03:53:25;;;;;;;10.23;3.30;;;11.70;99.90;;;;;;5019086;28;20622;-72
2022/10/04 03:55:51;;;;;;;9.13;2.90;;;11.70;99.90;;;;;;5022805;28;20656;-73
2022/10/04 03:58:18;;;;;;;11.57;3.37;;;11.80;99.90;;;;;;5024070;28;20208;-70
2022/10/04 04:00:52;;;;;;;5.43;2.60;;;11.80;99.90;;;;;;5024456;28;20182;-72
2022/10/04 04:03:20;;;;;;;9.90;2.63;;;11.90;99.90;;;;;;5022852;28;20598;-72
2022/10/04 04:05:52;;;;;;;9.83;3.17;;;11.90;99.90;;;;;;5023808;28;20255;-74
2022/10/04 04:08:39;;;;;;;9.87;2.77;;;12.00;99.90;;;;;;5021798;28;20214;-72
2022/10/04 04:11:06;;;;;;;12.40;2.47;;;12.00;99.90;;;;;;5007997;28;20565;-76
2022/10/04 04:13:45;;;;;;;13.70;3.23;;;12.00;99.90;;;;;;5030155;28;20204;-74
2022/10/04 04:16:11;;;;;;;12.83;3.37;;;12.10;99.90;;;;;;5012963;28;20192;-75
2022/10/04 04:18:42;;;;;;;8.43;2.87;;;12.10;99.90;;;;;;5030819;28;20288;-76
2022/10/04 04:21:09;;;;;;;11.17;2.70;;;12.10;99.90;;;;;;5008888;28;20200;-77
2022/10/04 04:23:49;;;;;;;9.30;3.27;;;12.10;99.90;;;;;;5034858;28;20267;-77
2022/10/04 04:26:41;;;;;;;11.67;3.23;;;12.10;99.90;;;;;;5025188;28;20193;-74
2022/10/04 04:29:15;;;;;;;10.17;3.13;;;12.00;99.90;;;;;;5020119;28;20767;-78
2022/10/04 04:31:45;;;;;;;8.33;3.17;;;12.00;99.90;;;;;;5011506;28;20220;-78
2022/10/04 04:34:21;;;;;;;7.73;2.73;;;11.90;99.90;;;;;;5030298;28;20212;-76
2022/10/04 04:36:47;;;;;;;7.43;2.63;;;11.90;99.90;;;;;;5016486;28;20213;-75
2022/10/04 04:42:12;;;;;;;8.83;2.93;;;11.90;99.90;;;;;;5027049;28;20221;-72
2022/10/04 04:44:47;;;;;;;10.37;3.30;;;11.80;99.90;;;;;;5023528;28;20199;-77
2022/10/04 04:47:33;;;;;;;10.37;2.87;;;11.80;99.90;;;;;;5023506;28;20188;-74
2022/10/04 04:50:39;;;;;;;13.57;2.97;;;11.80;99.90;;;;;;5019929;28;20623;-77
2022/10/04 04:53:25;;;;;;;10.67;3.10;;;11.80;99.90;;;;;;5024947;28;20327;-77
2022/10/04 04:56:02;;;;;;;5.50;3.57;;;11.80;99.90;;;;;;5027727;28;20197;-72
2022/10/04 04:58:35;;;;;;;15.23;3.07;;;11.80;99.90;;;;;;5030224;28;20200;-71
2022/10/04 05:01:06;;;;;;;8.70;2.90;;;11.80;99.90;;;;;;5013427;28;20233;-72
2022/10/04 05:03:33;;;;;;;12.60;3.90;;;11.80;99.90;;;;;;5024370;28;20649;-72
2022/10/04 05:06:01;;;;;;;12.27;3.57;;;11.80;99.90;;;;;;5033598;28;20204;-72
2022/10/04 05:08:28;;;;;;;11.30;3.43;;;11.80;99.90;;;;;;5026835;28;20199;-71
2022/10/04 05:10:57;;;;;;;11.83;3.33;;;11.80;99.90;;;;;;5035864;28;20216;-72
2022/10/04 05:13:29;;;;;;;8.83;3.17;;;11.90;99.90;;;;;;5032853;28;20192;-70
2022/10/04 05:15:57;;;;;;;8.50;3.30;;;11.90;99.90;;;;;;5017073;28;20218;-70
2022/10/04 05:18:32;;;;;;;6.20;3.00;;;12.00;99.90;;;;;;5025869;28;20231;-71
2022/10/04 05:21:23;;;;;;;9.17;3.43;;;12.00;99.90;;;;;;5038117;28;20959;-71
2022/10/04 05:23:48;;;;;;;10.20;2.57;;;12.10;99.90;;;;;;5024660;28;20212;-71
2022/10/04 05:26:23;;;;;;;14.43;2.93;;;12.10;99.90;;;;;;5031437;28;21026;-71
2022/10/04 05:28:49;;;;;;;6.50;2.77;;;12.10;99.90;;;;;;5013960;28;20303;-71
2022/10/04 05:31:46;;;;;;;8.13;2.57;;;12.10;99.90;;;;;;5040174;28;20289;-71
2022/10/04 05:34:29;;;;;;;8.63;2.40;;;12.20;99.90;;;;;;5017386;28;20208;-70
2022/10/04 05:37:34;;;;;;;7.03;2.93;;;12.20;99.90;;;;;;5017828;28;20193;-71
2022/10/04 05:40:05;;;;;;;18.87;3.07;;;12.30;99.90;;;;;;5016871;28;20683;-71
2022/10/04 05:42:44;;;;;;;6.63;2.87;;;12.30;99.90;;;;;;5029795;28;20243;-72
2022/10/04 05:45:18;;;;;;;7.87;2.90;;;12.30;99.90;;;;;;5018095;28;20267;-71
2022/10/04 05:47:49;;;;;;;8.87;2.70;;;12.40;99.90;;;;;;5023898;28;20614;-71
2022/10/04 05:50:24;;;;;;;9.27;3.10;;;12.40;99.90;;;;;;5017452;28;20218;-72
2022/10/04 05:52:51;;;;;;;13.23;3.37;;;12.50;99.90;;;;;;5013439;28;20293;-72
2022/10/04 05:55:41;;;;;;;13.93;3.50;;;12.50;99.90;;;;;;5026065;28;20189;-71
2022/10/04 05:58:21;;;;;;;8.53;2.97;;;12.50;99.90;;;;;;5023519;28;20261;-71
2022/10/04 06:01:24;;;;;;;11.80;4.30;;;12.50;99.90;;;;;;5017222;28;20318;-71
2022/10/04 06:04:16;;;;;;;11.30;5.20;;;12.50;99.90;;;;;;5029328;28;20258;-71
2022/10/04 06:07:04;;;;;;;13.60;5.17;;;12.50;99.90;;;;;;5018546;28;20187;-71
2022/10/04 06:09:56;;;;;;;7.87;2.73;;;12.60;99.90;;;;;;5015117;28;20576;-71
2022/10/04 06:12:42;;;;;;;10.67;3.00;;;12.60;99.90;;;;;;5018525;28;20199;-71
2022/10/04 06:15:43;;;;;;;8.37;2.67;;;12.60;99.90;;;;;;5025652;28;20597;-71
2022/10/04 06:18:34;;;;;;;5.30;2.60;;;12.70;99.90;;;;;;5019979;28;20337;-71
2022/10/04 06:21:20;;;;;;;9.07;2.80;;;12.80;99.90;;;;;;5025916;28;20215;-71
2022/10/04 06:23:52;;;;;;;5.33;2.47;;;12.80;99.90;;;;;;5012121;28;20199;-70
2022/10/04 06:26:23;;;;;;;8.00;2.70;;;12.80;99.90;;;;;;5018986;28;20192;-71
2022/10/04 06:28:57;;;;;;;9.57;3.17;;;12.90;99.90;;;;;;5021071;28;20201;-70
2022/10/04 06:31:35;;;;;;;10.23;2.60;;;12.90;99.90;;;;;;5015454;28;20187;-70
2022/10/04 06:34:11;;;;;;;6.93;2.80;;;12.90;99.90;;;;;;5018960;28;20199;-70
2022/10/04 06:36:58;;;;;;;6.57;2.83;;;12.90;99.90;;;;;;5025153;28;20243;-70
2022/10/04 06:39:51;;;;;;;9.23;2.73;;;12.90;99.90;;;;;;5016232;28;20685;-69
2022/10/04 06:42:52;;;;;;;7.13;2.97;;;12.90;99.90;;;;;;5011855;28;20195;-71
2022/10/04 06:45:51;;;;;;;7.13;3.17;;;12.90;99.90;;;;;;5006534;28;20168;-70
2022/10/04 06:48:34;;;;;;;4.80;2.50;;;12.90;99.90;;;;;;5012953;28;20205;-70
2022/10/04 06:51:29;;;;;;;7.27;3.10;;;12.90;99.90;;;;;;5020483;28;20452;-70
2022/10/04 06:54:33;;;;;;;8.90;2.90;;;13.00;99.90;;;;;;5031003;28;20688;-70
2022/10/04 06:57:22;;;;;;;5.70;2.60;;;13.00;99.90;;;;;;5007525;28;20633;-72
2022/10/04 07:00:22;;;;;;;12.00;2.87;;;13.00;99.90;;;;;;5017802;28;20225;-72
2022/10/04 07:02:54;;;;;;;7.97;3.23;;;13.00;99.90;;;;;;5028399;28;20202;-72
2022/10/04 07:05:29;;;;;;;6.37;4.23;;;13.00;99.90;;;;;;5016292;28;20196;-72
2022/10/04 07:08:07;;;;;;;11.60;2.80;;;13.00;99.90;;;;;;5008954;28;20634;-71
2022/10/04 07:10:51;;;;;;;6.70;3.33;;;13.10;99.90;;;;;;5024350;28;20213;-72
2022/10/04 07:13:26;;;;;;;9.67;3.53;;;13.10;99.90;;;;;;5008115;28;20196;-71
2022/10/04 07:15:58;;;;;;;8.47;3.27;;;13.20;99.90;;;;;;5024095;28;20689;-70
2022/10/04 07:18:31;;;;;;;9.47;3.53;;;13.20;99.90;;;;;;5016755;28;20472;-71
2022/10/04 07:21:11;;;;;;;7.80;4.30;;;13.20;99.90;;;;;;5013971;28;20225;-76
2022/10/04 07:23:55;;;;;;;5.77;3.33;;;13.30;99.90;;;;;;5008497;28;20203;-72
2022/10/04 07:26:27;;;;;;;8.23;3.37;;;13.40;99.90;;;;;;5010541;28;20215;-71
2022/10/04 07:31:41;;;;;;;8.40;3.90;;;13.50;99.90;;;;;;5020815;28;20194;-71
2022/10/04 07:34:15;;;;;;;8.37;3.83;;;13.50;99.90;;;;;;5031778;28;20208;-70
2022/10/04 07:36:50;;;;;;;6.93;3.40;;;13.50;99.90;;;;;;5008532;28;20222;-70
2022/10/04 07:39:25;;;;;;;9.20;3.83;;;13.60;99.90;;;;;;5019431;28;20209;-69
2022/10/04 07:41:51;;;;;;;11.93;4.10;;;13.60;99.90;;;;;;5005727;28;20278;-71
2022/10/04 07:44:30;;;;;;;9.17;4.30;;;13.60;99.90;;;;;;5031056;28;20203;-70
2022/10/04 07:47:10;;;;;;;9.10;4.40;;;13.60;99.90;;;;;;5025093;28;20203;-71
2022/10/04 07:49:40;;;;;;;8.30;3.50;;;13.60;99.90;;;;;;5013694;28;20233;-70
2022/10/04 07:52:27;;;;;;;10.53;4.07;;;13.50;99.90;;;;;;5037475;28;20352;-70
2022/10/04 07:55:09;;;;;;;8.13;4.20;;;13.60;99.90;;;;;;5025402;28;20212;-71
2022/10/04 07:57:43;;;;;;;9.00;4.73;;;13.60;99.90;;;;;;5027553;28;20203;-71
2022/10/04 08:00:20;;;;;;;8.43;5.73;;;13.60;99.90;;;;;;5024868;28;20207;-71
2022/10/04 08:03:09;;;;;;;8.77;5.00;;;13.60;99.90;;;;;;5025141;28;20193;-70
2022/10/04 08:05:41;;;;;;;9.97;6.20;;;13.60;99.90;;;;;;5020879;28;20654;-70
2022/10/04 08:08:32;;;;;;;8.73;4.77;;;13.60;99.90;;;;;;5038050;28;20212;-70
2022/10/04 08:11:30;;;;;;;10.00;5.43;;;13.70;99.90;;;;;;5025952;28;20209;-71
2022/10/04 08:14:18;;;;;;;10.87;5.03;;;13.80;99.90;;;;;;5016408;28;20699;-71
2022/10/04 08:17:17;;;;;;;15.33;6.93;;;13.90;99.90;;;;;;5020080;28;20198;-70
2022/10/04 08:19:56;;;;;;;11.47;6.57;;;14.10;99.90;;;;;;5020024;28;20208;-69
2022/10/04 08:22:31;;;;;;;9.63;5.77;;;14.20;99.90;;;;;;5027223;28;20200;-70
2022/10/04 08:25:15;;;;;;;11.17;5.13;;;14.20;99.90;;;;;;5017839;28;20333;-71
2022/10/04 08:30:57;;;;;;;7.13;4.67;;;14.20;99.90;;;;;;5016241;28;20214;-70
2022/10/04 08:33:41;;;;;;;10.83;4.47;;;14.40;99.90;;;;;;5019956;28;20230;-71
2022/10/04 08:36:43;;;;;;;5.30;4.17;;;14.40;99.90;;;;;;5019579;28;20192;-69
2022/10/04 08:39:43;;;;;;;8.03;4.60;;;14.50;99.90;;;;;;5035618;28;20211;-69
2022/10/04 08:42:27;;;;;;;8.87;4.33;;;14.60;99.90;;;;;;5015546;28;20195;-69
2022/10/04 08:45:21;;;;;;;7.30;3.77;;;14.80;99.90;;;;;;5013644;28;20332;-70
2022/10/04 08:48:30;;;;;;;4.33;3.87;;;14.80;99.90;;;;;;5024868;28;20203;-69
2022/10/04 08:51:33;;;;;;;6.27;3.60;;;14.70;99.90;;;;;;5018293;28;20258;-70
2022/10/04 08:54:20;;;;;;;5.50;3.13;;;14.60;99.90;;;;;;5030054;28;20227;-69
2022/10/04 08:57:16;;;;;;;7.00;3.80;;;14.60;99.90;;;;;;5032448;28;20192;-69
2022/10/04 09:00:07;;;;;;;7.33;3.57;;;14.70;99.90;;;;;;5019312;28;20681;-70
2022/10/04 09:03:03;;;;;;;9.13;6.97;;;14.80;99.90;;;;;;5019092;28;20689;-70
2022/10/04 09:05:41;;;;;;;7.30;3.80;;;15.00;99.90;;;;;;5020757;28;20651;-70
2022/10/04 09:08:44;;;;;;;5.73;3.00;;;15.10;99.90;;;;;;5015918;28;20187;-70
2022/10/04 09:11:41;;;;;;;5.13;3.23;;;15.30;99.90;;;;;;5018736;28;20207;-70
2022/10/04 09:14:26;;;;;;;4.60;3.07;;;15.40;99.90;;;;;;5016519;28;20199;-69
2022/10/04 09:17:16;;;;;;;5.67;2.93;;;15.50;99.90;;;;;;5016362;28;20195;-70
2022/10/04 09:20:23;;;;;;;4.83;3.10;;;15.60;99.90;;;;;;5018457;28;20207;-70
2022/10/04 09:23:36;;;;;;;4.00;2.70;;;15.40;99.90;;;;;;5009272;28;20203;-70
2022/10/04 09:26:32;;;;;;;4.73;2.77;;;15.40;99.90;;;;;;5021010;28;20203;-71
2022/10/04 09:29:18;;;;;;;5.47;3.43;;;15.30;99.90;;;;;;5009702;28;20286;-71
2022/10/04 09:32:08;;;;;;;10.53;3.50;;;15.20;99.90;;;;;;5035063;28;20902;-71
2022/10/04 09:35:10;;;;;;;5.97;3.20;;;15.20;99.90;;;;;;5014522;28;20290;-71
2022/10/04 09:37:55;;;;;;;6.27;2.80;;;15.20;99.90;;;;;;5040950;28;20295;-70
2022/10/04 09:40:27;;;;;;;3.70;2.27;;;15.20;99.90;;;;;;5019058;28;20272;-70
2022/10/04 09:43:16;;;;;;;8.60;2.00;;;15.30;99.90;;;;;;5012091;28;20192;-70
2022/10/04 09:46:22;;;;;;;5.30;2.13;;;15.40;99.90;;;;;;5023125;28;20199;-71
2022/10/04 09:49:31;;;;;;;5.77;1.97;;;15.50;99.90;;;;;;5021844;28;20234;-71
2022/10/04 09:52:19;;;;;;;4.07;2.13;;;15.70;99.90;;;;;;5033550;28;20309;-71
2022/10/04 09:55:16;;;;;;;3.07;2.33;;;15.70;99.90;;;;;;5015329;28;20235;-78
2022/10/04 09:58:09;;;;;;;5.83;2.50;;;15.80;99.90;;;;;;5018343;28;21047;-78
2022/10/04 10:00:45;;;;;;;7.67;3.33;;;15.90;99.90;;;;;;5021811;28;20199;-79
2022/10/04 10:03:45;;;;;;;5.70;2.83;;;15.90;99.90;;;;;;5021901;28;20650;-81
2022/10/04 10:06:29;;;;;;;4.93;2.17;;;15.80;99.90;;;;;;5023124;28;20184;-80
2022/10/04 10:16:24;;;;;;;4.77;2.37;;;16.10;99.90;;;;;;5021750;28;20324;-81
2022/10/04 10:19:33;;;;;;;6.93;3.00;;;16.20;99.90;;;;;;5021443;28;20213;-71
2022/10/04 10:22:31;;;;;;;7.07;2.40;;;16.30;99.90;;;;;;5016923;28;20179;-74
2022/10/04 10:25:17;;;;;;;4.73;2.80;;;16.40;99.90;;;;;;5022314;28;20207;-75
2022/10/04 10:27:51;;;;;;;7.73;2.57;;;16.30;99.90;;;;;;5017622;28;20175;-75
2022/10/04 10:30:48;;;;;;;6.43;2.50;;;16.10;99.90;;;;;;5018653;28;20223;-74
2022/10/04 10:33:41;;;;;;;6.73;2.97;;;16.10;99.90;;;;;;5010664;28;20559;-75
2022/10/04 10:36:44;;;;;;;6.30;2.43;;;16.30;99.90;;;;;;5017418;28;20187;-74
2022/10/04 10:39:35;;;;;;;7.37;2.87;;;16.50;99.90;;;;;;4998139;28;20207;-75
2022/10/04 10:42:26;;;;;;;6.47;2.43;;;16.70;99.90;;;;;;5041706;28;20548;-92
2022/10/04 10:45:31;;;;;;;7.47;3.03;;;16.70;99.90;;;;;;5016663;28;20207;-73
2022/10/04 10:48:09;;;;;;;8.63;2.70;;;16.60;99.90;;;;;;5024184;28;20194;-73
2022/10/04 10:51:09;;;;;;;8.37;3.23;;;16.50;99.90;;;;;;5018501;28;20665;-73
2022/10/04 10:54:04;;;;;;;7.60;3.10;;;16.40;99.90;;;;;;5018415;28;20655;-72
2022/10/04 10:57:04;;;;;;;8.87;3.10;;;16.50;99.90;;;;;;5005039;28;20215;-73
2022/10/04 10:59:59;;;;;;;6.40;2.70;;;16.40;99.90;;;;;;5009207;28;20286;-75
2022/10/04 11:02:40;;;;;;;5.43;2.67;;;16.50;99.90;;;;;;5014785;28;20282;-71
2022/10/04 11:05:37;;;;;;;4.47;2.37;;;16.90;99.90;;;;;;5018637;28;20243;-70
2022/10/04 11:08:28;;;;;;;8.40;2.77;;;16.90;99.90;;;;;;5023281;28;20191;-72
2022/10/04 11:11:33;;;;;;;9.70;2.93;;;16.70;99.90;;;;;;5019375;28;20215;-69
2022/10/04 11:14:17;;;;;;;5.53;2.50;;;16.90;99.90;;;;;;5017282;28;20286;-72
2022/10/04 11:17:04;;;;;;;6.30;2.07;;;16.80;99.90;;;;;;5023285;28;20199;-73
2022/10/04 11:19:54;;;;;;;5.60;2.60;;;16.60;99.90;;;;;;5008170;28;20200;-75
2022/10/04 11:22:43;;;;;;;7.53;2.50;;;16.50;99.90;;;;;;5010237;28;20211;-73
2022/10/04 11:25:33;;;;;;;9.90;2.67;;;16.50;99.90;;;;;;5013307;28;20664;-73
2022/10/04 11:28:34;;;;;;;6.57;2.43;;;16.50;99.90;;;;;;5004484;28;20639;-73
2022/10/04 11:31:24;;;;;;;5.53;2.53;;;16.90;99.90;;;;;;5021831;28;20213;-77
2022/10/04 11:34:01;;;;;;;4.17;2.20;;;17.40;99.90;;;;;;5027747;28;20184;-78
2022/10/04 11:36:44;;;;;;;5.33;2.10;;;17.90;99.90;;;;;;5028182;28;20167;-76
2022/10/04 11:39:45;;;;;;;4.83;2.43;;;18.30;99.90;;;;;;5023272;28;20959;-78
2022/10/04 11:42:49;;;;;;;4.37;1.60;;;18.60;99.90;;;;;;5028144;28;20183;-76
2022/10/04 11:45:37;;;;;;;7.23;2.70;;;18.60;99.90;;;;;;5024153;28;20394;-76
2022/10/04 11:48:26;;;;;;;3.47;2.10;;;18.50;99.90;;;;;;5013828;28;20179;-76
2022/10/04 11:51:29;;;;;;;6.10;2.03;;;18.10;99.90;;;;;;5017554;28;20549;-76
2022/10/04 11:54:02;;;;;;;6.10;2.40;;;18.20;99.90;;;;;;5016597;28;20243;-77
2022/10/04 11:57:06;;;;;;;6.33;2.63;;;18.30;99.90;;;;;;5028278;28;20530;-78
2022/10/04 11:59:57;;;;;;;8.93;2.10;;;18.40;99.90;;;;;;5036474;28;20570;-78
2022/10/04 12:02:38;;;;;;;7.03;1.87;;;18.10;99.90;;;;;;5027923;28;20717;-77
2022/10/04 12:05:29;;;;;;;5.00;1.70;;;18.20;99.90;;;;;;5023925;28;20665;-78
2022/10/04 12:08:29;;;;;;;5.43;1.90;;;18.10;99.90;;;;;;5017858;28;20214;-77
2022/10/04 12:11:07;;;;;;;3.70;2.03;;;18.20;99.90;;;;;;5021805;28;20215;-77
2022/10/04 12:14:10;;;;;;;10.23;2.03;;;18.60;99.90;;;;;;5021164;28;20238;-78
2022/10/04 12:17:32;;;;;;;3.50;1.50;;;19.20;99.90;;;;;;5019067;28;20192;-78
2022/10/04 12:20:35;;;;;;;3.27;1.53;;;19.80;99.90;;;;;;5021239;28;20337;-77
2022/10/04 12:23:39;;;;;;;4.83;2.20;;;19.90;99.90;;;;;;5043283;28;20195;-77
2022/10/04 12:26:24;;;;;;;4.23;1.77;;;20.30;99.90;;;;;;5019352;28;20314;-78
2022/10/04 12:29:24;;;;;;;4.77;1.90;;;20.70;99.90;;;;;;5017439;28;20384;-74
2022/10/04 12:32:02;;;;;;;3.00;1.47;;;20.70;99.90;;;;;;5013395;28;20193;-75
2022/10/04 12:34:44;;;;;;;2.53;1.37;;;20.90;99.90;;;;;;5024762;28;20204;-78
2022/10/04 12:37:31;;;;;;;4.83;1.47;;;20.90;99.90;;;;;;5025051;28;20276;-75
2022/10/04 12:40:06;;;;;;;4.63;1.33;;;21.00;99.50;;;;;;5016245;28;20196;-77
2022/10/04 12:42:56;;;;;;;5.80;1.90;;;20.80;99.70;;;;;;5016629;28;20185;-76
2022/10/04 12:45:52;;;;;;;2.63;1.33;;;20.50;99.90;;;;;;5022535;28;20201;-77
2022/10/04 12:48:30;;;;;;;2.93;1.40;;;20.40;99.90;;;;;;5040747;28;20279;-76
2022/10/04 12:51:19;;;;;;;3.87;1.70;;;20.80;99.90;;;;;;5019511;28;20227;-78
2022/10/04 12:53:58;;;;;;;9.50;2.03;;;21.10;99.30;;;;;;5032999;28;20293;-76
2022/10/04 12:57:14;;;;;;;7.83;1.93;;;21.10;99.20;;;;;;5014865;28;20667;-79
2022/10/04 13:00:13;;;;;;;4.17;1.70;;;21.50;98.30;;;;;;5026463;28;20214;-75
2022/10/04 13:03:06;;;;;;;6.03;1.53;;;21.50;97.70;;;;;;5009367;28;20214;-76
2022/10/04 13:05:47;;;;;;;4.73;1.70;;;21.70;97.70;;;;;;5020039;28;20205;-80
2022/10/04 13:08:48;;;;;;;4.87;1.90;;;21.60;97.60;;;;;;5026148;28;20181;-80
2022/10/04 13:11:27;;;;;;;4.27;1.40;;;21.50;97.00;;;;;;5014175;28;20249;-79
2022/10/04 13:14:25;;;;;;;6.47;2.03;;;21.20;97.40;;;;;;5023865;28;20733;-76
2022/10/04 13:17:00;;;;;;;5.47;1.97;;;21.20;97.40;;;;;;5018470;28;20189;-78
2022/10/04 13:19:40;;;;;;;4.47;2.10;;;20.80;97.80;;;;;;5022013;28;20194;-76
2022/10/04 13:22:29;;;;;;;3.67;1.47;;;20.90;98.60;;;;;;5023118;28;20264;-74
2022/10/04 13:25:00;;;;;;;5.70;1.93;;;20.50;98.80;;;;;;5021207;28;20217;-75
2022/10/04 13:27:50;;;;;;;5.50;1.67;;;20.40;98.70;;;;;;5023166;28;20173;-77
2022/10/04 13:30:35;;;;;;;4.10;1.50;;;20.50;98.10;;;;;;5021745;28;20224;-75
2022/10/04 13:33:39;;;;;;;5.20;1.93;;;20.60;98.60;;;;;;5025432;28;20236;-77
2022/10/04 13:36:28;;;;;;;6.87;1.83;;;20.70;98.20;;;;;;5019356;28;20715;-77
2022/10/04 13:39:25;;;;;;;3.40;1.60;;;20.30;98.60;;;;;;5020920;28;20225;-76
2022/10/04 13:42:14;;;;;;;3.43;1.67;;;20.70;97.20;;;;;;5012133;28;20195;-75
2022/10/04 13:44:59;;;;;;;2.33;1.10;;;21.60;96.10;;;;;;5039989;28;20670;-76
2022/10/04 13:47:33;;;;;;;4.60;1.77;;;22.30;95.00;;;;;;5026173;28;20191;-77
2022/10/04 13:50:25;;;;;;;6.73;1.60;;;21.50;95.80;;;;;;5023098;28;20227;-75
2022/10/04 13:59:21;;;;;;;3.83;1.30;;;21.70;95.10;;;;;;4983404;28;20200;-74
2022/10/04 14:02:11;;;;;;;5.30;1.60;;;21.30;95.10;;;;;;5016048;28;20210;-71
2022/10/04 14:04:47;;;;;;;6.77;1.93;;;21.20;95.20;;;;;;5021780;28;20191;-72
2022/10/04 14:07:21;;;;;;;2.23;1.20;;;21.60;94.30;;;;;;5023537;28;20248;-71
2022/10/04 14:10:13;;;;;;;4.57;1.20;;;22.00;95.00;;;;;;5015629;28;20203;-75
2022/10/04 14:12:48;;;;;;;4.00;1.52;;;22.80;93.40;;;;;;5037562;28;20186;-72
2022/10/04 14:15:43;;;;;;;3.40;1.20;;;23.70;93.30;;;;;;5021652;28;20583;-71
2022/10/04 14:18:31;;;;;;;1.83;1.30;;;23.50;92.00;;;;;;5017302;28;20184;-72
2022/10/04 14:21:32;;;;;;;2.55;1.15;;;23.30;93.10;;;;;;5020780;28;20274;-79
2022/10/04 14:24:33;;;;;;;2.88;1.30;;;23.20;92.20;;;;;;5011825;28;20730;-72
2022/10/04 14:27:37;;;;;;;5.80;1.67;;;23.20;92.50;;;;;;5024175;28;20200;-72
2022/10/04 14:30:17;;;;;;;1.92;0.73;;;23.80;92.00;;;;;;5009197;28;20218;-76